CPV2 weather

Orangeville / Castlewood Field
Orangeville, Ontario, Canada

Public forecast

Using degrees Celsius for public forecast. Weather courtesy of forecast.io.

Closest aviation weather report (METAR) to Orangeville / Castlewood Field

Closest report is CFB Borden, 21.5 nm (39.8 km) NNE. Retrieved 2019/10/23 03:00 UTC (33 minutes ago):

CYBN 230300Z AUTO 22012KT 9SM FEW043 OVC083 11/05 A2971 RMK SLP064

Closest aviation forecast (TAF) to Orangeville / Castlewood Field

Closest forecast is CFB Borden, 21.5 nm (39.8 km) NNE. Retrieved 2019-10-23 00:33 UTC (3 hours ago):

TAF TAF CYBN 222330Z 2300/2312 20012G22KT P6SM SCT030 FM230300 22008KT P6SM SCT020 BKN030 RMK FCST BASED ON AUTO OBS NXT FCST BY 230600Z